sensor_id;sensor_type;location;lat;lon;timestamp;temperature;humidity
2873;DHT22;1444;49.166;7.312;2022-12-18T00:01:59;-5.50;90.60
2873;DHT22;1444;49.166;7.312;2022-12-18T00:04:27;-5.40;90.70
2873;DHT22;1444;49.166;7.312;2022-12-18T00:06:55;-5.30;90.60
2873;DHT22;1444;49.166;7.312;2022-12-18T00:09:22;-5.20;90.50
2873;DHT22;1444;49.166;7.312;2022-12-18T00:16:44;-5.20;90.20
2873;DHT22;1444;49.166;7.312;2022-12-18T00:19:11;-5.50;90.00
2873;DHT22;1444;49.166;7.312;2022-12-18T00:21:41;-5.20;90.30
2873;DHT22;1444;49.166;7.312;2022-12-18T00:24:10;-5.20;90.20
2873;DHT22;1444;49.166;7.312;2022-12-18T00:26:38;-5.20;90.30
2873;DHT22;1444;49.166;7.312;2022-12-18T00:34:00;-5.30;89.70
2873;DHT22;1444;49.166;7.312;2022-12-18T00:36:29;-5.20;90.00
2873;DHT22;1444;49.166;7.312;2022-12-18T00:38:58;-5.20;90.10
2873;DHT22;1444;49.166;7.312;2022-12-18T00:41:26;-5.20;90.10
2873;DHT22;1444;49.166;7.312;2022-12-18T00:44:13;-5.10;90.10
2873;DHT22;1444;49.166;7.312;2022-12-18T00:46:40;-5.10;90.00
2873;DHT22;1444;49.166;7.312;2022-12-18T00:49:07;-5.00;90.00
2873;DHT22;1444;49.166;7.312;2022-12-18T00:51:34;-5.10;89.20
2873;DHT22;1444;49.166;7.312;2022-12-18T00:54:01;-5.00;89.40
2873;DHT22;1444;49.166;7.312;2022-12-18T01:03:50;-5.00;88.70
2873;DHT22;1444;49.166;7.312;2022-12-18T01:06:17;-5.10;88.90
2873;DHT22;1444;49.166;7.312;2022-12-18T01:08:44;-5.10;88.90
2873;DHT22;1444;49.166;7.312;2022-12-18T01:11:13;-5.10;89.50
2873;DHT22;1444;49.166;7.312;2022-12-18T01:13:41;-5.10;89.10
2873;DHT22;1444;49.166;7.312;2022-12-18T01:16:10;-5.10;89.00
2873;DHT22;1444;49.166;7.312;2022-12-18T01:18:37;-5.20;88.60
2873;DHT22;1444;49.166;7.312;2022-12-18T01:26:04;-5.10;88.80
2873;DHT22;1444;49.166;7.312;2022-12-18T01:28:31;-5.20;88.80
2873;DHT22;1444;49.166;7.312;2022-12-18T01:38:30;-4.50;89.60
2873;DHT22;1444;49.166;7.312;2022-12-18T01:40:57;-5.10;88.60
2873;DHT22;1444;49.166;7.312;2022-12-18T01:46:07;-5.10;89.50
2873;DHT22;1444;49.166;7.312;2022-12-18T01:48:34;-5.10;89.40
2873;DHT22;1444;49.166;7.312;2022-12-18T01:51:01;-5.00;89.30
2873;DHT22;1444;49.166;7.312;2022-12-18T01:53:28;-5.00;89.40
2873;DHT22;1444;49.166;7.312;2022-12-18T01:58:29;-4.90;90.00
2873;DHT22;1444;49.166;7.312;2022-12-18T02:03:27;-4.80;89.70
2873;DHT22;1444;49.166;7.312;2022-12-18T02:05:59;-4.80;89.50
2873;DHT22;1444;49.166;7.312;2022-12-18T02:08:31;-4.70;89.80
2873;DHT22;1444;49.166;7.312;2022-12-18T02:11:04;-4.70;89.60
2873;DHT22;1444;49.166;7.312;2022-12-18T02:13:36;-4.70;89.50
2873;DHT22;1444;49.166;7.312;2022-12-18T02:16:12;-4.70;89.40
2873;DHT22;1444;49.166;7.312;2022-12-18T02:18:47;-4.80;89.00
2873;DHT22;1444;49.166;7.312;2022-12-18T02:21:22;-4.80;88.90
2873;DHT22;1444;49.166;7.312;2022-12-18T02:23:56;-4.80;88.60
2873;DHT22;1444;49.166;7.312;2022-12-18T02:26:28;-4.90;88.00
2873;DHT22;1444;49.166;7.312;2022-12-18T02:29:02;-4.90;88.10
2873;DHT22;1444;49.166;7.312;2022-12-18T02:31:33;-5.10;87.30
2873;DHT22;1444;49.166;7.312;2022-12-18T02:34:04;-5.20;87.40
2873;DHT22;1444;49.166;7.312;2022-12-18T02:36:32;-5.30;87.70
2873;DHT22;1444;49.166;7.312;2022-12-18T02:39:01;-5.40;88.10
2873;DHT22;1444;49.166;7.312;2022-12-18T02:41:30;-5.40;88.70
2873;DHT22;1444;49.166;7.312;2022-12-18T02:46:31;-5.50;87.80
2873;DHT22;1444;49.166;7.312;2022-12-18T02:49:08;-5.50;88.20
2873;DHT22;1444;49.166;7.312;2022-12-18T02:54:13;-5.80;88.00
2873;DHT22;1444;49.166;7.312;2022-12-18T02:56:48;-5.80;88.00
2873;DHT22;1444;49.166;7.312;2022-12-18T02:59:19;-5.80;88.80
2873;DHT22;1444;49.166;7.312;2022-12-18T03:01:51;-5.80;88.90
2873;DHT22;1444;49.166;7.312;2022-12-18T03:04:22;-5.80;89.20
2873;DHT22;1444;49.166;7.312;2022-12-18T03:06:53;-5.80;88.80
2873;DHT22;1444;49.166;7.312;2022-12-18T03:09:24;-5.70;89.10
2873;DHT22;1444;49.166;7.312;2022-12-18T03:12:02;-5.70;88.50
2873;DHT22;1444;49.166;7.312;2022-12-18T03:17:18;-5.60;88.20
2873;DHT22;1444;49.166;7.312;2022-12-18T03:19:46;-5.70;87.90
2873;DHT22;1444;49.166;7.312;2022-12-18T03:22:15;-5.70;87.90
2873;DHT22;1444;49.166;7.312;2022-12-18T03:27:13;-5.80;87.80
2873;DHT22;1444;49.166;7.312;2022-12-18T03:32:12;-5.90;89.10
2873;DHT22;1444;49.166;7.312;2022-12-18T03:34:42;-5.80;89.40
2873;DHT22;1444;49.166;7.312;2022-12-18T03:37:10;-5.80;88.90
2873;DHT22;1444;49.166;7.312;2022-12-18T03:39:37;-5.80;88.90
2873;DHT22;1444;49.166;7.312;2022-12-18T03:42:07;-5.80;89.00
2873;DHT22;1444;49.166;7.312;2022-12-18T03:44:42;-5.80;88.80
2873;DHT22;1444;49.166;7.312;2022-12-18T03:47:15;-5.70;88.80
2873;DHT22;1444;49.166;7.312;2022-12-18T03:49:47;-5.70;88.30
2873;DHT22;1444;49.166;7.312;2022-12-18T03:52:20;-5.80;88.00
2873;DHT22;1444;49.166;7.312;2022-12-18T03:54:48;-5.80;88.30
2873;DHT22;1444;49.166;7.312;2022-12-18T03:57:17;-5.70;88.50
2873;DHT22;1444;49.166;7.312;2022-12-18T03:59:48;-5.80;88.10
2873;DHT22;1444;49.166;7.312;2022-12-18T04:04:44;-5.70;88.10
2873;DHT22;1444;49.166;7.312;2022-12-18T04:09:41;-5.70;87.70
2873;DHT22;1444;49.166;7.312;2022-12-18T04:12:08;-5.70;87.30
2873;DHT22;1444;49.166;7.312;2022-12-18T04:14:35;-5.60;86.60
2873;DHT22;1444;49.166;7.312;2022-12-18T04:17:03;-5.70;85.70
2873;DHT22;1444;49.166;7.312;2022-12-18T04:19:30;-5.70;84.60
2873;DHT22;1444;49.166;7.312;2022-12-18T04:21:56;-5.90;82.90
2873;DHT22;1444;49.166;7.312;2022-12-18T04:24:23;-5.90;82.70
2873;DHT22;1444;49.166;7.312;2022-12-18T04:26:50;-6.10;81.60
2873;DHT22;1444;49.166;7.312;2022-12-18T04:29:17;-6.50;80.90
2873;DHT22;1444;49.166;7.312;2022-12-18T04:31:43;-6.60;82.60
2873;DHT22;1444;49.166;7.312;2022-12-18T04:34:11;-6.60;84.10
2873;DHT22;1444;49.166;7.312;2022-12-18T04:36:38;-5.00;85.80
2873;DHT22;1444;49.166;7.312;2022-12-18T04:39:05;-6.50;84.10
2873;DHT22;1444;49.166;7.312;2022-12-18T04:41:31;-6.50;84.30
2873;DHT22;1444;49.166;7.312;2022-12-18T04:43:58;-6.40;84.10
2873;DHT22;1444;49.166;7.312;2022-12-18T04:46:25;-6.50;82.40
2873;DHT22;1444;49.166;7.312;2022-12-18T04:48:52;-6.50;82.20
2873;DHT22;1444;49.166;7.312;2022-12-18T04:51:20;-6.60;81.70
2873;DHT22;1444;49.166;7.312;2022-12-18T04:53:46;-6.70;81.20
2873;DHT22;1444;49.166;7.312;2022-12-18T04:56:15;-6.80;81.90
2873;DHT22;1444;49.166;7.312;2022-12-18T04:58:43;-6.80;81.40
2873;DHT22;1444;49.166;7.312;2022-12-18T05:01:11;-6.90;82.40
2873;DHT22;1444;49.166;7.312;2022-12-18T05:08:35;-7.30;80.30
2873;DHT22;1444;49.166;7.312;2022-12-18T05:11:03;-7.50;81.40
2873;DHT22;1444;49.166;7.312;2022-12-18T05:13:31;-7.60;82.30
2873;DHT22;1444;49.166;7.312;2022-12-18T05:15:58;-7.50;83.40
2873;DHT22;1444;49.166;7.312;2022-12-18T05:18:25;-7.50;82.70
2873;DHT22;1444;49.166;7.312;2022-12-18T05:23:20;-7.40;82.90
2873;DHT22;1444;49.166;7.312;2022-12-18T05:25:52;-7.40;82.40
2873;DHT22;1444;49.166;7.312;2022-12-18T05:30:48;-7.70;80.70
2873;DHT22;1444;49.166;7.312;2022-12-18T05:33:15;-7.70;81.90
2873;DHT22;1444;49.166;7.312;2022-12-18T05:35:42;-7.70;81.80
2873;DHT22;1444;49.166;7.312;2022-12-18T05:45:31;-7.60;83.60
2873;DHT22;1444;49.166;7.312;2022-12-18T05:47:58;-7.60;82.50
2873;DHT22;1444;49.166;7.312;2022-12-18T05:50:25;-7.60;82.40
2873;DHT22;1444;49.166;7.312;2022-12-18T05:52:52;-7.60;82.70
2873;DHT22;1444;49.166;7.312;2022-12-18T05:57:45;-7.60;83.60
2873;DHT22;1444;49.166;7.312;2022-12-18T06:00:15;-7.70;83.10
2873;DHT22;1444;49.166;7.312;2022-12-18T06:02:42;-7.70;81.80
2873;DHT22;1444;49.166;7.312;2022-12-18T06:05:08;-7.80;81.10
2873;DHT22;1444;49.166;7.312;2022-12-18T06:07:36;-7.80;81.20
2873;DHT22;1444;49.166;7.312;2022-12-18T06:12:30;-7.80;81.90
2873;DHT22;1444;49.166;7.312;2022-12-18T06:19:57;-7.60;83.00
2873;DHT22;1444;49.166;7.312;2022-12-18T06:22:24;-7.60;83.00
2873;DHT22;1444;49.166;7.312;2022-12-18T06:24:51;-7.60;82.80
2873;DHT22;1444;49.166;7.312;2022-12-18T06:27:18;-7.70;82.70
2873;DHT22;1444;49.166;7.312;2022-12-18T06:29:45;-7.60;83.10
2873;DHT22;1444;49.166;7.312;2022-12-18T06:32:11;-7.60;82.10
2873;DHT22;1444;49.166;7.312;2022-12-18T06:34:39;-7.60;81.50
2873;DHT22;1444;49.166;7.312;2022-12-18T06:42:00;-7.60;81.30
2873;DHT22;1444;49.166;7.312;2022-12-18T06:44:27;-7.60;81.50
2873;DHT22;1444;49.166;7.312;2022-12-18T06:46:53;-7.60;81.30
2873;DHT22;1444;49.166;7.312;2022-12-18T06:49:20;-7.60;81.30
2873;DHT22;1444;49.166;7.312;2022-12-18T06:51:48;-7.60;81.20
2873;DHT22;1444;49.166;7.312;2022-12-18T06:54:15;-7.60;81.10
2873;DHT22;1444;49.166;7.312;2022-12-18T06:56:42;-7.60;80.80
2873;DHT22;1444;49.166;7.312;2022-12-18T06:59:08;-7.70;80.30
2873;DHT22;1444;49.166;7.312;2022-12-18T07:01:35;-7.80;79.90
2873;DHT22;1444;49.166;7.312;2022-12-18T07:04:02;-7.80;80.00
2873;DHT22;1444;49.166;7.312;2022-12-18T07:06:28;-7.90;79.40
2873;DHT22;1444;49.166;7.312;2022-12-18T07:08:56;-8.00;79.40
2873;DHT22;1444;49.166;7.312;2022-12-18T07:13:51;-8.40;79.40
2873;DHT22;1444;49.166;7.312;2022-12-18T07:16:19;-8.60;79.40
2873;DHT22;1444;49.166;7.312;2022-12-18T07:21:16;-8.80;81.80
2873;DHT22;1444;49.166;7.312;2022-12-18T07:26:16;-9.00;81.70
2873;DHT22;1444;49.166;7.312;2022-12-18T07:31:12;-9.10;83.20
2873;DHT22;1444;49.166;7.312;2022-12-18T07:33:40;-9.10;84.50
2873;DHT22;1444;49.166;7.312;2022-12-18T07:36:08;-8.90;84.50
2873;DHT22;1444;49.166;7.312;2022-12-18T07:41:04;-11.60;80.20
2873;DHT22;1444;49.166;7.312;2022-12-18T07:46:00;-8.60;81.40
2873;DHT22;1444;49.166;7.312;2022-12-18T07:48:27;-8.70;81.30
2873;DHT22;1444;49.166;7.312;2022-12-18T07:50:57;-8.70;81.60
2873;DHT22;1444;49.166;7.312;2022-12-18T07:53:24;-8.80;82.70
2873;DHT22;1444;49.166;7.312;2022-12-18T07:55:55;-8.80;84.20
2873;DHT22;1444;49.166;7.312;2022-12-18T08:00:50;-8.50;85.70
2873;DHT22;1444;49.166;7.312;2022-12-18T08:03:17;-8.20;85.90
2873;DHT22;1444;49.166;7.312;2022-12-18T08:05:44;-8.00;86.00
2873;DHT22;1444;49.166;7.312;2022-12-18T08:08:11;-7.80;85.80
2873;DHT22;1444;49.166;7.312;2022-12-18T08:10:38;-7.60;86.20
2873;DHT22;1444;49.166;7.312;2022-12-18T08:13:04;-7.40;87.00
2873;DHT22;1444;49.166;7.312;2022-12-18T08:17:59;-7.00;88.10
2873;DHT22;1444;49.166;7.312;2022-12-18T08:22:54;-6.50;88.80
2873;DHT22;1444;49.166;7.312;2022-12-18T08:27:47;-6.20;88.40
2873;DHT22;1444;49.166;7.312;2022-12-18T08:30:14;-6.10;88.40
2873;DHT22;1444;49.166;7.312;2022-12-18T08:32:41;-5.90;89.20
2873;DHT22;1444;49.166;7.312;2022-12-18T08:35:09;-5.80;90.00
2873;DHT22;1444;49.166;7.312;2022-12-18T08:37:37;-5.70;90.20
2873;DHT22;1444;49.166;7.312;2022-12-18T08:40:05;-5.50;90.30
2873;DHT22;1444;49.166;7.312;2022-12-18T08:42:33;-5.30;90.40
2873;DHT22;1444;49.166;7.312;2022-12-18T08:45:18;-5.20;90.50
2873;DHT22;1444;49.166;7.312;2022-12-18T08:47:44;-5.00;90.60
2873;DHT22;1444;49.166;7.312;2022-12-18T08:50:12;-4.90;90.80
2873;DHT22;1444;49.166;7.312;2022-12-18T08:52:40;-5.00;92.00
2873;DHT22;1444;49.166;7.312;2022-12-18T08:55:08;-4.90;92.50
2873;DHT22;1444;49.166;7.312;2022-12-18T08:57:35;-5.00;92.30
2873;DHT22;1444;49.166;7.312;2022-12-18T09:00:02;-4.80;92.40
2873;DHT22;1444;49.166;7.312;2022-12-18T09:07:24;-4.40;92.30
2873;DHT22;1444;49.166;7.312;2022-12-18T09:09:51;-4.30;92.40
2873;DHT22;1444;49.166;7.312;2022-12-18T09:12:18;-4.20;92.70
2873;DHT22;1444;49.166;7.312;2022-12-18T09:14:45;-4.10;92.60
2873;DHT22;1444;49.166;7.312;2022-12-18T09:17:11;-4.00;92.50
2873;DHT22;1444;49.166;7.312;2022-12-18T09:19:38;-3.80;92.50
2873;DHT22;1444;49.166;7.312;2022-12-18T09:22:05;-3.80;92.40
2873;DHT22;1444;49.166;7.312;2022-12-18T09:24:33;-3.70;92.40
2873;DHT22;1444;49.166;7.312;2022-12-18T09:27:00;-3.60;92.50
2873;DHT22;1444;49.166;7.312;2022-12-18T09:29:27;-3.60;92.20
2873;DHT22;1444;49.166;7.312;2022-12-18T09:31:53;-3.70;92.30
2873;DHT22;1444;49.166;7.312;2022-12-18T09:34:20;-3.70;92.50
2873;DHT22;1444;49.166;7.312;2022-12-18T09:36:47;-3.70;92.60
2873;DHT22;1444;49.166;7.312;2022-12-18T09:39:14;-3.60;92.90
2873;DHT22;1444;49.166;7.312;2022-12-18T09:41:44;-3.50;92.90
2873;DHT22;1444;49.166;7.312;2022-12-18T09:44:23;-3.50;92.70
2873;DHT22;1444;49.166;7.312;2022-12-18T09:49:23;-3.70;93.10
2873;DHT22;1444;49.166;7.312;2022-12-18T09:51:52;-3.60;93.20
2873;DHT22;1444;49.166;7.312;2022-12-18T09:54:23;-3.50;93.00
2873;DHT22;1444;49.166;7.312;2022-12-18T09:56:52;-3.50;92.70
2873;DHT22;1444;49.166;7.312;2022-12-18T09:59:23;-3.60;92.80
2873;DHT22;1444;49.166;7.312;2022-12-18T10:01:50;-4.10;93.00
2873;DHT22;1444;49.166;7.312;2022-12-18T10:04:17;-3.60;93.50
2873;DHT22;1444;49.166;7.312;2022-12-18T10:06:49;-3.40;93.60
2873;DHT22;1444;49.166;7.312;2022-12-18T10:09:27;-3.40;93.10
2873;DHT22;1444;49.166;7.312;2022-12-18T10:12:03;-3.30;93.60
2873;DHT22;1444;49.166;7.312;2022-12-18T10:17:07;-3.20;93.00
2873;DHT22;1444;49.166;7.312;2022-12-18T10:19:42;-3.20;93.30
2873;DHT22;1444;49.166;7.312;2022-12-18T10:24:53;-3.00;93.10
2873;DHT22;1444;49.166;7.312;2022-12-18T10:27:25;-3.10;93.00
2873;DHT22;1444;49.166;7.312;2022-12-18T10:29:53;-3.20;93.40
2873;DHT22;1444;49.166;7.312;2022-12-18T10:32:22;-3.30;93.10
2873;DHT22;1444;49.166;7.312;2022-12-18T10:34:52;-3.10;93.60
2873;DHT22;1444;49.166;7.312;2022-12-18T10:37:21;-3.00;93.60
2873;DHT22;1444;49.166;7.312;2022-12-18T10:40:07;-2.90;93.40
2873;DHT22;1444;49.166;7.312;2022-12-18T10:42:35;-3.10;93.00
2873;DHT22;1444;49.166;7.312;2022-12-18T10:45:11;-2.90;93.40
2873;DHT22;1444;49.166;7.312;2022-12-18T10:47:42;-2.80;93.70
2873;DHT22;1444;49.166;7.312;2022-12-18T10:50:19;-2.60;93.50
2873;DHT22;1444;49.166;7.312;2022-12-18T10:55:20;-2.40;93.20
2873;DHT22;1444;49.166;7.312;2022-12-18T10:57:48;-2.30;93.10
2873;DHT22;1444;49.166;7.312;2022-12-18T11:00:23;-2.30;93.00
2873;DHT22;1444;49.166;7.312;2022-12-18T11:02:50;-2.20;93.00
2873;DHT22;1444;49.166;7.312;2022-12-18T11:05:26;-2.30;92.50
2873;DHT22;1444;49.166;7.312;2022-12-18T11:10:22;-2.30;92.80
2873;DHT22;1444;49.166;7.312;2022-12-18T11:12:51;-1.10;93.60
2873;DHT22;1444;49.166;7.312;2022-12-18T11:15:20;-2.20;93.00
2873;DHT22;1444;49.166;7.312;2022-12-18T11:17:49;-2.20;93.10
2873;DHT22;1444;49.166;7.312;2022-12-18T11:22:58;-1.00;93.20
2873;DHT22;1444;49.166;7.312;2022-12-18T11:25:25;-2.60;92.80
2873;DHT22;1444;49.166;7.312;2022-12-18T11:27:56;-2.20;92.90
2873;DHT22;1444;49.166;7.312;2022-12-18T11:30:26;-2.10;93.00
2873;DHT22;1444;49.166;7.312;2022-12-18T11:35:30;-0.90;93.50
2873;DHT22;1444;49.166;7.312;2022-12-18T11:38:02;-2.20;92.80
2873;DHT22;1444;49.166;7.312;2022-12-18T11:40:35;-2.30;93.00
2873;DHT22;1444;49.166;7.312;2022-12-18T11:43:09;-2.30;93.00
2873;DHT22;1444;49.166;7.312;2022-12-18T11:45:41;-2.30;93.30
2873;DHT22;1444;49.166;7.312;2022-12-18T11:48:16;-2.10;93.50
2873;DHT22;1444;49.166;7.312;2022-12-18T11:55:47;-2.00;93.50
2873;DHT22;1444;49.166;7.312;2022-12-18T12:03:44;-1.70;93.50
2873;DHT22;1444;49.166;7.312;2022-12-18T12:06:18;-1.60;93.60
2873;DHT22;1444;49.166;7.312;2022-12-18T12:08:59;-1.70;93.10
2873;DHT22;1444;49.166;7.312;2022-12-18T12:14:23;-1.60;93.00
2873;DHT22;1444;49.166;7.312;2022-12-18T12:16:58;-1.50;93.40
2873;DHT22;1444;49.166;7.312;2022-12-18T12:19:36;-1.50;93.20
2873;DHT22;1444;49.166;7.312;2022-12-18T12:22:10;-1.40;93.00
2873;DHT22;1444;49.166;7.312;2022-12-18T12:24:48;-1.40;93.20
2873;DHT22;1444;49.166;7.312;2022-12-18T12:27:22;-1.40;93.10
2873;DHT22;1444;49.166;7.312;2022-12-18T12:32:45;0.00;93.70
2873;DHT22;1444;49.166;7.312;2022-12-18T12:35:21;-1.40;92.90
2873;DHT22;1444;49.166;7.312;2022-12-18T12:37:59;-1.20;93.60
2873;DHT22;1444;49.166;7.312;2022-12-18T12:40:33;-1.10;93.50
2873;DHT22;1444;49.166;7.312;2022-12-18T12:43:04;-1.00;93.20
2873;DHT22;1444;49.166;7.312;2022-12-18T12:45:42;-1.00;93.20
2873;DHT22;1444;49.166;7.312;2022-12-18T12:50:44;-1.00;93.00
2873;DHT22;1444;49.166;7.312;2022-12-18T12:53:21;1.20;93.80
2873;DHT22;1444;49.166;7.312;2022-12-18T12:58:19;-1.00;93.30
2873;DHT22;1444;49.166;7.312;2022-12-18T13:00:55;-0.90;93.10
2873;DHT22;1444;49.166;7.312;2022-12-18T13:03:35;-1.00;92.90
2873;DHT22;1444;49.166;7.312;2022-12-18T13:06:15;-1.20;92.80
2873;DHT22;1444;49.166;7.312;2022-12-18T13:08:55;-1.20;93.20
2873;DHT22;1444;49.166;7.312;2022-12-18T13:11:36;-1.40;93.00
2873;DHT22;1444;49.166;7.312;2022-12-18T13:14:28;-1.40;93.40
2873;DHT22;1444;49.166;7.312;2022-12-18T13:19:42;-1.20;93.40
2873;DHT22;1444;49.166;7.312;2022-12-18T13:22:21;0.40;94.10
2873;DHT22;1444;49.166;7.312;2022-12-18T13:27:52;-1.00;93.50
2873;DHT22;1444;49.166;7.312;2022-12-18T13:30:55;-0.80;93.60
2873;DHT22;1444;49.166;7.312;2022-12-18T13:33:40;-0.60;93.70
2873;DHT22;1444;49.166;7.312;2022-12-18T13:41:32;-0.70;93.00
2873;DHT22;1444;49.166;7.312;2022-12-18T13:44:11;-0.70;93.20
2873;DHT22;1444;49.166;7.312;2022-12-18T13:46:43;-0.60;93.00
2873;DHT22;1444;49.166;7.312;2022-12-18T13:49:21;-0.70;92.80
2873;DHT22;1444;49.166;7.312;2022-12-18T13:51:52;-0.60;93.10
2873;DHT22;1444;49.166;7.312;2022-12-18T13:54:22;-0.60;92.90
2873;DHT22;1444;49.166;7.312;2022-12-18T13:56:50;-0.60;92.80
2873;DHT22;1444;49.166;7.312;2022-12-18T14:01:48;-0.60;92.70
2873;DHT22;1444;49.166;7.312;2022-12-18T14:04:23;-0.80;92.70
2873;DHT22;1444;49.166;7.312;2022-12-18T14:06:53;-0.70;93.10
2873;DHT22;1444;49.166;7.312;2022-12-18T14:09:24;-0.70;93.00
2873;DHT22;1444;49.166;7.312;2022-12-18T14:11:52;-0.60;93.20
2873;DHT22;1444;49.166;7.312;2022-12-18T14:14:42;-0.50;93.10
2873;DHT22;1444;49.166;7.312;2022-12-18T14:17:10;-0.50;92.70
2873;DHT22;1444;49.166;7.312;2022-12-18T14:22:13;-0.70;92.50
2873;DHT22;1444;49.166;7.312;2022-12-18T14:24:41;-0.80;92.70
2873;DHT22;1444;49.166;7.312;2022-12-18T14:27:19;-0.80;92.80
2873;DHT22;1444;49.166;7.312;2022-12-18T14:29:47;-0.70;93.10
2873;DHT22;1444;49.166;7.312;2022-12-18T14:32:15;-0.80;92.80
2873;DHT22;1444;49.166;7.312;2022-12-18T14:34:43;-0.70;93.10
2873;DHT22;1444;49.166;7.312;2022-12-18T14:37:13;-0.60;92.90
2873;DHT22;1444;49.166;7.312;2022-12-18T14:39:40;-0.60;92.70
2873;DHT22;1444;49.166;7.312;2022-12-18T14:42:10;-0.60;92.50
2873;DHT22;1444;49.166;7.312;2022-12-18T14:44:37;-0.70;92.60
2873;DHT22;1444;49.166;7.312;2022-12-18T14:47:04;-0.70;92.70
2873;DHT22;1444;49.166;7.312;2022-12-18T14:49:32;-0.60;92.90
2873;DHT22;1444;49.166;7.312;2022-12-18T14:52:01;-0.60;92.80
2873;DHT22;1444;49.166;7.312;2022-12-18T14:54:31;-0.70;92.50
2873;DHT22;1444;49.166;7.312;2022-12-18T14:57:01;-0.70;92.80
2873;DHT22;1444;49.166;7.312;2022-12-18T15:02:04;-0.60;92.50
2873;DHT22;1444;49.166;7.312;2022-12-18T15:04:36;-0.50;92.50
2873;DHT22;1444;49.166;7.312;2022-12-18T15:07:09;-0.50;92.60
2873;DHT22;1444;49.166;7.312;2022-12-18T15:09:41;-0.50;92.40
2873;DHT22;1444;49.166;7.312;2022-12-18T15:12:22;-0.50;92.40
2873;DHT22;1444;49.166;7.312;2022-12-18T15:14:51;-0.50;92.40
2873;DHT22;1444;49.166;7.312;2022-12-18T15:17:19;-0.50;92.50
2873;DHT22;1444;49.166;7.312;2022-12-18T15:19:48;-0.50;92.40
2873;DHT22;1444;49.166;7.312;2022-12-18T15:22:20;-0.40;92.40
2873;DHT22;1444;49.166;7.312;2022-12-18T15:27:33;-0.30;92.30
2873;DHT22;1444;49.166;7.312;2022-12-18T15:35:03;-0.40;92.00
2873;DHT22;1444;49.166;7.312;2022-12-18T15:37:30;-0.40;92.10
2873;DHT22;1444;49.166;7.312;2022-12-18T15:39:58;-0.40;92.10
2873;DHT22;1444;49.166;7.312;2022-12-18T15:42:25;-0.40;92.00
2873;DHT22;1444;49.166;7.312;2022-12-18T15:45:11;-0.50;91.70
2873;DHT22;1444;49.166;7.312;2022-12-18T15:47:38;-0.50;91.90
2873;DHT22;1444;49.166;7.312;2022-12-18T15:50:06;-0.60;92.20
2873;DHT22;1444;49.166;7.312;2022-12-18T15:52:39;-0.60;92.20
2873;DHT22;1444;49.166;7.312;2022-12-18T15:57:54;-0.60;92.10
2873;DHT22;1444;49.166;7.312;2022-12-18T16:00:21;-0.70;92.10
2873;DHT22;1444;49.166;7.312;2022-12-18T16:02:48;-0.60;92.20
2873;DHT22;1444;49.166;7.312;2022-12-18T16:05:15;-0.60;92.10
2873;DHT22;1444;49.166;7.312;2022-12-18T16:07:42;-0.60;92.00
2873;DHT22;1444;49.166;7.312;2022-12-18T16:10:11;-0.70;92.00
2873;DHT22;1444;49.166;7.312;2022-12-18T16:12:38;-0.70;92.20
2873;DHT22;1444;49.166;7.312;2022-12-18T16:15:06;-0.70;92.30
2873;DHT22;1444;49.166;7.312;2022-12-18T16:17:33;-0.60;92.30
2873;DHT22;1444;49.166;7.312;2022-12-18T16:22:28;-0.70;92.20
2873;DHT22;1444;49.166;7.312;2022-12-18T16:24:56;-0.60;92.30
2873;DHT22;1444;49.166;7.312;2022-12-18T16:27:25;-0.60;92.20
2873;DHT22;1444;49.166;7.312;2022-12-18T16:29:51;-0.60;92.20
2873;DHT22;1444;49.166;7.312;2022-12-18T16:37:15;-0.60;92.20
2873;DHT22;1444;49.166;7.312;2022-12-18T16:39:42;-0.60;92.20
2873;DHT22;1444;49.166;7.312;2022-12-18T16:42:13;-1.40;91.90
2873;DHT22;1444;49.166;7.312;2022-12-18T16:47:10;-0.50;92.40
2873;DHT22;1444;49.166;7.312;2022-12-18T16:49:37;-0.50;92.30
2873;DHT22;1444;49.166;7.312;2022-12-18T16:52:04;-0.50;92.40
2873;DHT22;1444;49.166;7.312;2022-12-18T16:54:31;-0.50;92.40
2873;DHT22;1444;49.166;7.312;2022-12-18T16:59:27;-0.40;92.30
2873;DHT22;1444;49.166;7.312;2022-12-18T17:01:55;-0.40;92.30
2873;DHT22;1444;49.166;7.312;2022-12-18T17:04:22;-0.40;92.20
2873;DHT22;1444;49.166;7.312;2022-12-18T17:06:49;-0.40;92.20
2873;DHT22;1444;49.166;7.312;2022-12-18T17:11:47;-0.40;92.20
2873;DHT22;1444;49.166;7.312;2022-12-18T17:14:17;-0.40;92.20
2873;DHT22;1444;49.166;7.312;2022-12-18T17:16:44;-0.40;92.20
2873;DHT22;1444;49.166;7.312;2022-12-18T17:21:42;2.00;93.20
2873;DHT22;1444;49.166;7.312;2022-12-18T17:24:09;-0.40;92.10
2873;DHT22;1444;49.166;7.312;2022-12-18T17:26:36;-0.30;92.20
2873;DHT22;1444;49.166;7.312;2022-12-18T17:29:02;-0.40;92.20
2873;DHT22;1444;49.166;7.312;2022-12-18T17:33:57;-0.30;92.10
2873;DHT22;1444;49.166;7.312;2022-12-18T17:36:25;-0.30;92.20
2873;DHT22;1444;49.166;7.312;2022-12-18T17:38:55;-0.30;92.30
2873;DHT22;1444;49.166;7.312;2022-12-18T17:41:23;-0.20;92.30
2873;DHT22;1444;49.166;7.312;2022-12-18T17:43:50;-0.20;92.30
2873;DHT22;1444;49.166;7.312;2022-12-18T17:46:17;-0.20;92.40
2873;DHT22;1444;49.166;7.312;2022-12-18T17:48:44;0.60;92.80
2873;DHT22;1444;49.166;7.312;2022-12-18T17:51:11;-0.20;92.50
2873;DHT22;1444;49.166;7.312;2022-12-18T17:56:08;-0.10;92.80
2873;DHT22;1444;49.166;7.312;2022-12-18T18:01:05;-0.10;92.70
2873;DHT22;1444;49.166;7.312;2022-12-18T18:03:33;-0.10;92.70
2873;DHT22;1444;49.166;7.312;2022-12-18T18:06:03;0.00;92.70
2873;DHT22;1444;49.166;7.312;2022-12-18T18:08:30;-0.10;92.60
2873;DHT22;1444;49.166;7.312;2022-12-18T18:11:03;-1.50;91.90
2873;DHT22;1444;49.166;7.312;2022-12-18T18:16:26;0.20;92.60
2873;DHT22;1444;49.166;7.312;2022-12-18T18:18:56;0.10;92.60
2873;DHT22;1444;49.166;7.312;2022-12-18T18:23:50;0.20;92.70
2873;DHT22;1444;49.166;7.312;2022-12-18T18:26:18;0.20;92.60
2873;DHT22;1444;49.166;7.312;2022-12-18T18:28:45;0.20;92.60
2873;DHT22;1444;49.166;7.312;2022-12-18T18:31:12;0.20;92.80
2873;DHT22;1444;49.166;7.312;2022-12-18T18:33:39;0.20;92.80
2873;DHT22;1444;49.166;7.312;2022-12-18T18:36:09;0.10;93.00
2873;DHT22;1444;49.166;7.312;2022-12-18T18:38:36;0.20;93.00
2873;DHT22;1444;49.166;7.312;2022-12-18T18:43:32;0.20;92.90
2873;DHT22;1444;49.166;7.312;2022-12-18T18:46:00;0.20;92.80
2873;DHT22;1444;49.166;7.312;2022-12-18T18:48:30;0.20;93.00
2873;DHT22;1444;49.166;7.312;2022-12-18T18:50:58;0.20;93.00
2873;DHT22;1444;49.166;7.312;2022-12-18T18:53:26;0.20;93.00
2873;DHT22;1444;49.166;7.312;2022-12-18T18:55:53;0.20;93.00
2873;DHT22;1444;49.166;7.312;2022-12-18T19:00:55;0.00;93.10
2873;DHT22;1444;49.166;7.312;2022-12-18T19:03:22;0.00;93.20
2873;DHT22;1444;49.166;7.312;2022-12-18T19:05:51;-0.10;93.50
2873;DHT22;1444;49.166;7.312;2022-12-18T19:15:50;0.30;93.20
2873;DHT22;1444;49.166;7.312;2022-12-18T19:18:19;0.30;93.20
2873;DHT22;1444;49.166;7.312;2022-12-18T19:23:20;0.40;93.20
2873;DHT22;1444;49.166;7.312;2022-12-18T19:25:47;0.40;93.20
2873;DHT22;1444;49.166;7.312;2022-12-18T19:28:14;0.50;93.20
2873;DHT22;1444;49.166;7.312;2022-12-18T19:30:41;0.50;93.20
2873;DHT22;1444;49.166;7.312;2022-12-18T19:33:08;0.50;93.30
2873;DHT22;1444;49.166;7.312;2022-12-18T19:40:30;0.60;93.00
2873;DHT22;1444;49.166;7.312;2022-12-18T19:42:57;0.70;93.00
2873;DHT22;1444;49.166;7.312;2022-12-18T19:45:24;0.60;93.00
2873;DHT22;1444;49.166;7.312;2022-12-18T19:47:50;0.50;93.00
2873;DHT22;1444;49.166;7.312;2022-12-18T19:50:17;0.60;93.30
2873;DHT22;1444;49.166;7.312;2022-12-18T19:52:45;0.50;93.00
2873;DHT22;1444;49.166;7.312;2022-12-18T19:55:12;0.30;93.30
2873;DHT22;1444;49.166;7.312;2022-12-18T20:00:08;0.20;94.00
2873;DHT22;1444;49.166;7.312;2022-12-18T20:02:35;0.20;93.80
2873;DHT22;1444;49.166;7.312;2022-12-18T20:05:03;0.30;93.70
2873;DHT22;1444;49.166;7.312;2022-12-18T20:07:30;1.40;94.00
2873;DHT22;1444;49.166;7.312;2022-12-18T20:09:58;0.40;93.50
2873;DHT22;1444;49.166;7.312;2022-12-18T20:12:25;0.40;93.60
2873;DHT22;1444;49.166;7.312;2022-12-18T20:14:52;0.40;93.70
2873;DHT22;1444;49.166;7.312;2022-12-18T20:17:18;0.50;93.70